sensor_id;sensor_type;location;lat;lon;timestamp;temperature;humidity
17421;DHT22;8828;48.800;9.540;2023-06-10T00:00:08;19.70;95.30
17421;DHT22;8828;48.800;9.540;2023-06-10T00:02:40;19.70;95.40
17421;DHT22;8828;48.800;9.540;2023-06-10T00:05:09;19.60;95.50
17421;DHT22;8828;48.800;9.540;2023-06-10T00:07:37;19.60;95.60
17421;DHT22;8828;48.800;9.540;2023-06-10T00:10:06;19.60;95.70
17421;DHT22;8828;48.800;9.540;2023-06-10T00:12:35;19.60;95.70
17421;DHT22;8828;48.800;9.540;2023-06-10T00:15:06;19.50;95.80
17421;DHT22;8828;48.800;9.540;2023-06-10T00:17:35;19.50;95.70
17421;DHT22;8828;48.800;9.540;2023-06-10T00:20:09;19.50;95.80
17421;DHT22;8828;48.800;9.540;2023-06-10T00:22:39;19.40;96.00
17421;DHT22;8828;48.800;9.540;2023-06-10T00:25:09;19.40;96.10
17421;DHT22;8828;48.800;9.540;2023-06-10T00:27:38;19.40;96.10
17421;DHT22;8828;48.800;9.540;2023-06-10T00:30:07;19.40;96.20
17421;DHT22;8828;48.800;9.540;2023-06-10T00:32:36;19.30;96.30
17421;DHT22;8828;48.800;9.540;2023-06-10T00:35:05;19.30;96.40
17421;DHT22;8828;48.800;9.540;2023-06-10T00:37:35;19.30;96.50
17421;DHT22;8828;48.800;9.540;2023-06-10T00:40:05;19.20;96.50
17421;DHT22;8828;48.800;9.540;2023-06-10T00:42:36;19.20;96.60
17421;DHT22;8828;48.800;9.540;2023-06-10T00:45:05;19.10;96.70
17421;DHT22;8828;48.800;9.540;2023-06-10T00:47:34;19.10;96.80
17421;DHT22;8828;48.800;9.540;2023-06-10T00:50:04;19.10;96.90
17421;DHT22;8828;48.800;9.540;2023-06-10T00:52:33;19.10;96.90
17421;DHT22;8828;48.800;9.540;2023-06-10T00:55:04;19.10;97.00
17421;DHT22;8828;48.800;9.540;2023-06-10T00:57:35;19.00;97.00
17421;DHT22;8828;48.800;9.540;2023-06-10T01:00:05;19.00;97.10
17421;DHT22;8828;48.800;9.540;2023-06-10T01:02:35;19.00;97.20
17421;DHT22;8828;48.800;9.540;2023-06-10T01:05:04;19.00;97.30
17421;DHT22;8828;48.800;9.540;2023-06-10T01:07:37;18.90;97.30
17421;DHT22;8828;48.800;9.540;2023-06-10T01:10:11;18.90;97.40
17421;DHT22;8828;48.800;9.540;2023-06-10T01:12:44;18.80;97.40
17421;DHT22;8828;48.800;9.540;2023-06-10T01:15:15;18.80;97.50
17421;DHT22;8828;48.800;9.540;2023-06-10T01:17:54;18.80;97.60
17421;DHT22;8828;48.800;9.540;2023-06-10T01:20:25;18.70;97.70
17421;DHT22;8828;48.800;9.540;2023-06-10T01:22:55;18.70;97.80
17421;DHT22;8828;48.800;9.540;2023-06-10T01:25:26;18.60;98.20
17421;DHT22;8828;48.800;9.540;2023-06-10T01:28:01;18.60;98.00
17421;DHT22;8828;48.800;9.540;2023-06-10T01:30:35;18.60;98.10
17421;DHT22;8828;48.800;9.540;2023-06-10T01:33:07;18.50;98.10
17421;DHT22;8828;48.800;9.540;2023-06-10T01:35:37;18.50;98.20
17421;DHT22;8828;48.800;9.540;2023-06-10T01:38:08;18.50;98.30
17421;DHT22;8828;48.800;9.540;2023-06-10T01:40:36;18.50;98.30
17421;DHT22;8828;48.800;9.540;2023-06-10T01:43:05;18.40;98.40
17421;DHT22;8828;48.800;9.540;2023-06-10T01:45:33;18.40;98.40
17421;DHT22;8828;48.800;9.540;2023-06-10T01:48:01;18.30;98.50
17421;DHT22;8828;48.800;9.540;2023-06-10T01:50:29;18.30;98.50
17421;DHT22;8828;48.800;9.540;2023-06-10T01:52:59;18.30;98.60
17421;DHT22;8828;48.800;9.540;2023-06-10T01:55:28;18.40;98.70
17421;DHT22;8828;48.800;9.540;2023-06-10T01:57:56;18.30;98.70
17421;DHT22;8828;48.800;9.540;2023-06-10T02:00:24;18.30;98.80
17421;DHT22;8828;48.800;9.540;2023-06-10T02:02:52;18.30;98.90
17421;DHT22;8828;48.800;9.540;2023-06-10T02:05:20;18.30;98.90
17421;DHT22;8828;48.800;9.540;2023-06-10T02:07:49;18.30;99.00
17421;DHT22;8828;48.800;9.540;2023-06-10T02:10:17;18.30;99.10
17421;DHT22;8828;48.800;9.540;2023-06-10T02:12:47;18.30;99.10
17421;DHT22;8828;48.800;9.540;2023-06-10T02:15:15;18.20;99.20
17421;DHT22;8828;48.800;9.540;2023-06-10T02:17:43;18.20;99.30
17421;DHT22;8828;48.800;9.540;2023-06-10T02:20:12;18.20;99.40
17421;DHT22;8828;48.800;9.540;2023-06-10T02:22:41;18.10;99.40
17421;DHT22;8828;48.800;9.540;2023-06-10T02:25:09;18.10;99.50
17421;DHT22;8828;48.800;9.540;2023-06-10T02:27:37;18.10;99.60
17421;DHT22;8828;48.800;9.540;2023-06-10T02:30:08;18.10;99.60
17421;DHT22;8828;48.800;9.540;2023-06-10T02:32:37;18.00;99.70
17421;DHT22;8828;48.800;9.540;2023-06-10T02:35:05;18.00;99.80
17421;DHT22;8828;48.800;9.540;2023-06-10T02:37:34;17.90;99.80
17421;DHT22;8828;48.800;9.540;2023-06-10T02:40:02;17.90;99.90
17421;DHT22;8828;48.800;9.540;2023-06-10T02:42:31;17.90;99.90
17421;DHT22;8828;48.800;9.540;2023-06-10T02:44:59;17.90;99.90
17421;DHT22;8828;48.800;9.540;2023-06-10T02:47:30;17.90;99.90
17421;DHT22;8828;48.800;9.540;2023-06-10T02:49:58;17.90;99.90
17421;DHT22;8828;48.800;9.540;2023-06-10T02:52:26;17.80;99.90
17421;DHT22;8828;48.800;9.540;2023-06-10T02:54:54;17.80;99.90
17421;DHT22;8828;48.800;9.540;2023-06-10T02:57:22;17.80;99.90
17421;DHT22;8828;48.800;9.540;2023-06-10T02:59:50;17.80;99.90
17421;DHT22;8828;48.800;9.540;2023-06-10T03:02:20;17.80;99.90
17421;DHT22;8828;48.800;9.540;2023-06-10T03:04:49;17.80;99.90
17421;DHT22;8828;48.800;9.540;2023-06-10T03:07:17;17.80;99.90
17421;DHT22;8828;48.800;9.540;2023-06-10T03:09:47;17.80;99.90
17421;DHT22;8828;48.800;9.540;2023-06-10T03:12:15;17.80;99.90
17421;DHT22;8828;48.800;9.540;2023-06-10T03:14:43;17.80;99.90
17421;DHT22;8828;48.800;9.540;2023-06-10T03:17:11;17.70;99.90
17421;DHT22;8828;48.800;9.540;2023-06-10T03:19:39;17.70;99.90
17421;DHT22;8828;48.800;9.540;2023-06-10T03:22:10;17.70;99.90
17421;DHT22;8828;48.800;9.540;2023-06-10T03:24:39;17.70;99.90
17421;DHT22;8828;48.800;9.540;2023-06-10T03:27:07;17.60;99.90
17421;DHT22;8828;48.800;9.540;2023-06-10T03:29:36;17.60;99.90
17421;DHT22;8828;48.800;9.540;2023-06-10T03:32:04;17.70;99.90
17421;DHT22;8828;48.800;9.540;2023-06-10T03:34:32;17.70;99.90
17421;DHT22;8828;48.800;9.540;2023-06-10T03:37:00;17.60;99.90
17421;DHT22;8828;48.800;9.540;2023-06-10T03:39:29;17.60;99.90
17421;DHT22;8828;48.800;9.540;2023-06-10T03:41:57;17.60;99.90
17421;DHT22;8828;48.800;9.540;2023-06-10T03:44:25;17.60;99.90
17421;DHT22;8828;48.800;9.540;2023-06-10T03:46:54;17.60;99.90
17421;DHT22;8828;48.800;9.540;2023-06-10T03:49:22;17.60;99.90
17421;DHT22;8828;48.800;9.540;2023-06-10T03:51:53;17.60;99.90
17421;DHT22;8828;48.800;9.540;2023-06-10T03:54:22;17.60;99.90
17421;DHT22;8828;48.800;9.540;2023-06-10T03:56:51;17.60;99.90
17421;DHT22;8828;48.800;9.540;2023-06-10T03:59:19;17.70;99.90
17421;DHT22;8828;48.800;9.540;2023-06-10T04:01:47;17.70;99.90
17421;DHT22;8828;48.800;9.540;2023-06-10T04:04:15;17.60;99.90
17421;DHT22;8828;48.800;9.540;2023-06-10T04:06:44;17.60;99.90
17421;DHT22;8828;48.800;9.540;2023-06-10T04:09:12;17.60;99.90
17421;DHT22;8828;48.800;9.540;2023-06-10T04:11:40;17.60;99.90
17421;DHT22;8828;48.800;9.540;2023-06-10T04:14:09;17.70;99.90
17421;DHT22;8828;48.800;9.540;2023-06-10T04:16:37;17.60;99.90
17421;DHT22;8828;48.800;9.540;2023-06-10T04:19:06;17.60;99.90
17421;DHT22;8828;48.800;9.540;2023-06-10T04:21:34;17.70;99.90
17421;DHT22;8828;48.800;9.540;2023-06-10T04:24:03;17.70;99.90
17421;DHT22;8828;48.800;9.540;2023-06-10T04:26:31;17.70;99.90
17421;DHT22;8828;48.800;9.540;2023-06-10T04:29:00;17.70;99.90
17421;DHT22;8828;48.800;9.540;2023-06-10T04:31:29;17.70;99.90
17421;DHT22;8828;48.800;9.540;2023-06-10T04:33:59;17.70;99.90
17421;DHT22;8828;48.800;9.540;2023-06-10T04:36:28;17.80;99.90
17421;DHT22;8828;48.800;9.540;2023-06-10T04:38:56;17.80;99.90
17421;DHT22;8828;48.800;9.540;2023-06-10T04:41:24;17.80;99.90
17421;DHT22;8828;48.800;9.540;2023-06-10T04:43:53;17.80;99.90
17421;DHT22;8828;48.800;9.540;2023-06-10T04:46:21;17.80;99.90
17421;DHT22;8828;48.800;9.540;2023-06-10T04:48:51;17.80;99.90
17421;DHT22;8828;48.800;9.540;2023-06-10T04:51:21;17.80;99.90
17421;DHT22;8828;48.800;9.540;2023-06-10T04:53:48;17.80;99.90
17421;DHT22;8828;48.800;9.540;2023-06-10T04:56:16;17.90;99.90
17421;DHT22;8828;48.800;9.540;2023-06-10T04:58:44;17.90;99.90
17421;DHT22;8828;48.800;9.540;2023-06-10T05:01:12;17.90;99.90
17421;DHT22;8828;48.800;9.540;2023-06-10T05:03:40;17.90;99.90
17421;DHT22;8828;48.800;9.540;2023-06-10T05:06:10;17.90;99.90
17421;DHT22;8828;48.800;9.540;2023-06-10T05:08:38;18.00;99.90
17421;DHT22;8828;48.800;9.540;2023-06-10T05:11:06;18.00;99.90
17421;DHT22;8828;48.800;9.540;2023-06-10T05:13:33;18.00;99.90
17421;DHT22;8828;48.800;9.540;2023-06-10T05:16:02;18.10;99.90
17421;DHT22;8828;48.800;9.540;2023-06-10T05:18:30;18.10;99.90
17421;DHT22;8828;48.800;9.540;2023-06-10T05:20:58;18.10;99.90
17421;DHT22;8828;48.800;9.540;2023-06-10T05:23:27;18.20;99.90
17421;DHT22;8828;48.800;9.540;2023-06-10T05:25:55;18.20;99.90
17421;DHT22;8828;48.800;9.540;2023-06-10T05:28:23;18.20;99.90
17421;DHT22;8828;48.800;9.540;2023-06-10T05:30:51;18.30;99.90
17421;DHT22;8828;48.800;9.540;2023-06-10T05:33:19;18.30;99.90
17421;DHT22;8828;48.800;9.540;2023-06-10T05:35:47;18.40;99.90
17421;DHT22;8828;48.800;9.540;2023-06-10T05:38:15;18.40;99.90
17421;DHT22;8828;48.800;9.540;2023-06-10T05:40:45;18.50;99.90
17421;DHT22;8828;48.800;9.540;2023-06-10T05:43:13;18.50;99.90
17421;DHT22;8828;48.800;9.540;2023-06-10T05:45:43;18.60;99.90
17421;DHT22;8828;48.800;9.540;2023-06-10T05:48:11;18.70;99.90
17421;DHT22;8828;48.800;9.540;2023-06-10T05:50:39;18.70;99.90
17421;DHT22;8828;48.800;9.540;2023-06-10T05:53:09;18.80;99.90
17421;DHT22;8828;48.800;9.540;2023-06-10T05:55:43;18.90;99.90
17421;DHT22;8828;48.800;9.540;2023-06-10T05:58:12;18.90;99.90
17421;DHT22;8828;48.800;9.540;2023-06-10T06:00:41;19.00;99.90
17421;DHT22;8828;48.800;9.540;2023-06-10T06:03:09;19.10;99.90
17421;DHT22;8828;48.800;9.540;2023-06-10T06:05:38;19.10;99.90
17421;DHT22;8828;48.800;9.540;2023-06-10T06:08:06;19.20;99.90
17421;DHT22;8828;48.800;9.540;2023-06-10T06:10:34;19.30;99.90
17421;DHT22;8828;48.800;9.540;2023-06-10T06:13:04;19.40;99.90
17421;DHT22;8828;48.800;9.540;2023-06-10T06:15:32;19.40;99.90
17421;DHT22;8828;48.800;9.540;2023-06-10T06:17:59;19.50;99.90
17421;DHT22;8828;48.800;9.540;2023-06-10T06:20:28;19.50;99.90
17421;DHT22;8828;48.800;9.540;2023-06-10T06:22:56;19.60;99.90
17421;DHT22;8828;48.800;9.540;2023-06-10T06:25:23;19.70;99.90
17421;DHT22;8828;48.800;9.540;2023-06-10T06:27:51;19.70;99.90
17421;DHT22;8828;48.800;9.540;2023-06-10T06:30:21;19.80;99.90
17421;DHT22;8828;48.800;9.540;2023-06-10T06:32:49;19.90;99.90
17421;DHT22;8828;48.800;9.540;2023-06-10T06:35:18;20.00;99.90
17421;DHT22;8828;48.800;9.540;2023-06-10T06:37:46;20.10;99.90
17421;DHT22;8828;48.800;9.540;2023-06-10T06:40:14;20.10;99.90
17421;DHT22;8828;48.800;9.540;2023-06-10T06:42:42;20.20;99.90
17421;DHT22;8828;48.800;9.540;2023-06-10T06:45:10;20.20;99.90
17421;DHT22;8828;48.800;9.540;2023-06-10T06:47:39;20.30;99.90
17421;DHT22;8828;48.800;9.540;2023-06-10T06:50:08;20.40;99.90
17421;DHT22;8828;48.800;9.540;2023-06-10T06:52:36;20.40;99.90
17421;DHT22;8828;48.800;9.540;2023-06-10T06:55:05;20.50;99.90
17421;DHT22;8828;48.800;9.540;2023-06-10T06:57:34;20.50;99.90
17421;DHT22;8828;48.800;9.540;2023-06-10T07:00:04;20.60;99.90
17421;DHT22;8828;48.800;9.540;2023-06-10T07:02:32;20.60;99.90
17421;DHT22;8828;48.800;9.540;2023-06-10T07:05:01;20.70;99.90
17421;DHT22;8828;48.800;9.540;2023-06-10T07:07:30;20.80;99.90
17421;DHT22;8828;48.800;9.540;2023-06-10T07:09:58;20.90;99.90
17421;DHT22;8828;48.800;9.540;2023-06-10T07:12:26;20.90;99.90
17421;DHT22;8828;48.800;9.540;2023-06-10T07:14:54;21.00;99.90
17421;DHT22;8828;48.800;9.540;2023-06-10T07:17:22;21.00;99.90
17421;DHT22;8828;48.800;9.540;2023-06-10T07:19:50;21.10;99.90
17421;DHT22;8828;48.800;9.540;2023-06-10T07:22:20;21.20;99.90
17421;DHT22;8828;48.800;9.540;2023-06-10T07:24:48;21.20;99.90
17421;DHT22;8828;48.800;9.540;2023-06-10T07:27:18;21.30;99.90
17421;DHT22;8828;48.800;9.540;2023-06-10T07:29:46;21.40;99.90
17421;DHT22;8828;48.800;9.540;2023-06-10T07:32:14;21.40;99.90
17421;DHT22;8828;48.800;9.540;2023-06-10T07:34:45;21.50;99.90
17421;DHT22;8828;48.800;9.540;2023-06-10T07:37:13;21.60;99.90
17421;DHT22;8828;48.800;9.540;2023-06-10T07:39:42;21.70;99.90
17421;DHT22;8828;48.800;9.540;2023-06-10T07:42:11;21.70;99.90
17421;DHT22;8828;48.800;9.540;2023-06-10T07:44:39;21.80;99.90
17421;DHT22;8828;48.800;9.540;2023-06-10T07:47:07;21.90;99.90
17421;DHT22;8828;48.800;9.540;2023-06-10T07:49:35;22.00;99.80
17421;DHT22;8828;48.800;9.540;2023-06-10T07:52:03;22.00;99.90
17421;DHT22;8828;48.800;9.540;2023-06-10T07:54:32;22.10;99.70
17421;DHT22;8828;48.800;9.540;2023-06-10T07:57:01;22.20;99.90
17421;DHT22;8828;48.800;9.540;2023-06-10T07:59:29;22.20;99.60
17421;DHT22;8828;48.800;9.540;2023-06-10T08:01:57;22.30;99.70
17421;DHT22;8828;48.800;9.540;2023-06-10T08:04:25;22.40;99.30
17421;DHT22;8828;48.800;9.540;2023-06-10T08:06:53;22.50;99.30
17421;DHT22;8828;48.800;9.540;2023-06-10T08:09:21;22.50;99.30
17421;DHT22;8828;48.800;9.540;2023-06-10T08:11:49;22.60;99.10
17421;DHT22;8828;48.800;9.540;2023-06-10T08:14:19;22.70;98.50
17421;DHT22;8828;48.800;9.540;2023-06-10T08:16:47;22.70;98.70
17421;DHT22;8828;48.800;9.540;2023-06-10T08:19:15;22.80;98.20
17421;DHT22;8828;48.800;9.540;2023-06-10T08:21:43;22.80;98.20
17421;DHT22;8828;48.800;9.540;2023-06-10T08:24:11;22.90;98.50
17421;DHT22;8828;48.800;9.540;2023-06-10T08:26:39;23.00;98.20
17421;DHT22;8828;48.800;9.540;2023-06-10T08:29:07;23.10;98.20
17421;DHT22;8828;48.800;9.540;2023-06-10T08:31:36;23.10;97.90
17421;DHT22;8828;48.800;9.540;2023-06-10T08:34:04;23.20;97.50
17421;DHT22;8828;48.800;9.540;2023-06-10T08:36:32;23.30;98.00
17421;DHT22;8828;48.800;9.540;2023-06-10T08:39:00;23.30;97.80
17421;DHT22;8828;48.800;9.540;2023-06-10T08:41:29;23.40;97.80
17421;DHT22;8828;48.800;9.540;2023-06-10T08:44:03;23.50;97.70
17421;DHT22;8828;48.800;9.540;2023-06-10T08:46:36;23.60;97.30
17421;DHT22;8828;48.800;9.540;2023-06-10T08:49:06;23.70;97.40
17421;DHT22;8828;48.800;9.540;2023-06-10T08:51:35;23.70;96.70
17421;DHT22;8828;48.800;9.540;2023-06-10T08:54:10;23.70;96.80
17421;DHT22;8828;48.800;9.540;2023-06-10T08:56:39;23.80;97.10
17421;DHT22;8828;48.800;9.540;2023-06-10T08:59:08;23.80;96.90
17421;DHT22;8828;48.800;9.540;2023-06-10T09:01:38;23.90;97.40
17421;DHT22;8828;48.800;9.540;2023-06-10T09:04:06;24.00;97.00
17421;DHT22;8828;48.800;9.540;2023-06-10T09:06:35;24.00;96.60
17421;DHT22;8828;48.800;9.540;2023-06-10T09:09:05;23.90;96.30
17421;DHT22;8828;48.800;9.540;2023-06-10T09:11:34;24.00;96.60
17421;DHT22;8828;48.800;9.540;2023-06-10T09:14:02;24.00;96.50
17421;DHT22;8828;48.800;9.540;2023-06-10T09:16:30;24.00;96.30
17421;DHT22;8828;48.800;9.540;2023-06-10T09:18:59;24.10;96.10
17421;DHT22;8828;48.800;9.540;2023-06-10T09:21:28;24.10;95.90
17421;DHT22;8828;48.800;9.540;2023-06-10T09:23:56;24.20;95.90
17421;DHT22;8828;48.800;9.540;2023-06-10T09:26:28;24.30;95.00
17421;DHT22;8828;48.800;9.540;2023-06-10T09:29:03;24.80;94.90
17421;DHT22;8828;48.800;9.540;2023-06-10T09:31:32;25.50;93.90
17421;DHT22;8828;48.800;9.540;2023-06-10T09:34:07;26.10;93.30
17421;DHT22;8828;48.800;9.540;2023-06-10T09:36:36;26.80;92.20
17421;DHT22;8828;48.800;9.540;2023-06-10T09:39:05;27.50;90.70
17421;DHT22;8828;48.800;9.540;2023-06-10T09:41:33;28.20;90.00
17421;DHT22;8828;48.800;9.540;2023-06-10T09:44:02;28.60;89.20
17421;DHT22;8828;48.800;9.540;2023-06-10T09:46:37;28.90;86.50
17421;DHT22;8828;48.800;9.540;2023-06-10T09:49:05;29.30;86.20
17421;DHT22;8828;48.800;9.540;2023-06-10T09:51:34;29.50;84.00
17421;DHT22;8828;48.800;9.540;2023-06-10T09:54:03;29.60;83.20
17421;DHT22;8828;48.800;9.540;2023-06-10T09:56:34;29.60;82.10
17421;DHT22;8828;48.800;9.540;2023-06-10T09:59:03;29.60;82.30
17421;DHT22;8828;48.800;9.540;2023-06-10T10:01:32;29.80;82.90
17421;DHT22;8828;48.800;9.540;2023-06-10T10:04:01;30.00;81.60
17421;DHT22;8828;48.800;9.540;2023-06-10T10:06:29;30.20;81.50
17421;DHT22;8828;48.800;9.540;2023-06-10T10:08:59;30.40;79.20
17421;DHT22;8828;48.800;9.540;2023-06-10T10:11:27;30.50;79.30
17421;DHT22;8828;48.800;9.540;2023-06-10T10:13:55;30.60;79.20
17421;DHT22;8828;48.800;9.540;2023-06-10T10:16:36;30.70;78.10
17421;DHT22;8828;48.800;9.540;2023-06-10T10:19:10;30.80;77.80
17421;DHT22;8828;48.800;9.540;2023-06-10T10:21:44;30.90;76.90
17421;DHT22;8828;48.800;9.540;2023-06-10T10:24:17;30.90;76.20
17421;DHT22;8828;48.800;9.540;2023-06-10T10:26:46;30.80;76.10
17421;DHT22;8828;48.800;9.540;2023-06-10T10:29:19;30.70;77.40
17421;DHT22;8828;48.800;9.540;2023-06-10T10:31:50;30.70;77.40
17421;DHT22;8828;48.800;9.540;2023-06-10T10:34:25;30.80;77.80
17421;DHT22;8828;48.800;9.540;2023-06-10T10:36:54;30.80;75.50
17421;DHT22;8828;48.800;9.540;2023-06-10T10:39:24;30.70;76.80
17421;DHT22;8828;48.800;9.540;2023-06-10T10:41:56;30.80;75.90
17421;DHT22;8828;48.800;9.540;2023-06-10T10:44:24;31.00;75.70
17421;DHT22;8828;48.800;9.540;2023-06-10T10:46:53;31.10;76.10
17421;DHT22;8828;48.800;9.540;2023-06-10T10:49:22;31.10;74.50
17421;DHT22;8828;48.800;9.540;2023-06-10T10:51:56;31.10;75.30
17421;DHT22;8828;48.800;9.540;2023-06-10T10:54:33;31.20;75.10
17421;DHT22;8828;48.800;9.540;2023-06-10T10:57:15;31.20;75.10
17421;DHT22;8828;48.800;9.540;2023-06-10T10:59:51;31.30;75.50
17421;DHT22;8828;48.800;9.540;2023-06-10T11:02:33;31.50;74.70
17421;DHT22;8828;48.800;9.540;2023-06-10T11:05:02;31.30;74.30
17421;DHT22;8828;48.800;9.540;2023-06-10T11:07:32;31.20;75.10
17421;DHT22;8828;48.800;9.540;2023-06-10T11:10:03;31.30;74.60
17421;DHT22;8828;48.800;9.540;2023-06-10T11:12:54;31.30;73.90
17421;DHT22;8828;48.800;9.540;2023-06-10T11:15:23;31.40;73.50
17421;DHT22;8828;48.800;9.540;2023-06-10T11:18:08;31.50;74.30
17421;DHT22;8828;48.800;9.540;2023-06-10T11:20:53;31.40;73.30
17421;DHT22;8828;48.800;9.540;2023-06-10T11:26:20;31.30;73.20
17421;DHT22;8828;48.800;9.540;2023-06-10T11:29:06;31.40;73.80
17421;DHT22;8828;48.800;9.540;2023-06-10T11:31:44;31.50;71.70
17421;DHT22;8828;48.800;9.540;2023-06-10T11:34:13;31.40;72.20
17421;DHT22;8828;48.800;9.540;2023-06-10T11:36:42;31.30;73.30
17421;DHT22;8828;48.800;9.540;2023-06-10T11:39:12;31.30;73.10
17421;DHT22;8828;48.800;9.540;2023-06-10T11:41:42;31.30;72.90
17421;DHT22;8828;48.800;9.540;2023-06-10T11:44:11;31.20;73.20
17421;DHT22;8828;48.800;9.540;2023-06-10T11:46:45;31.30;73.30
17421;DHT22;8828;48.800;9.540;2023-06-10T11:49:14;31.40;73.50
17421;DHT22;8828;48.800;9.540;2023-06-10T11:51:42;31.60;73.40
17421;DHT22;8828;48.800;9.540;2023-06-10T11:54:16;31.90;72.50
17421;DHT22;8828;48.800;9.540;2023-06-10T11:56:46;31.80;71.10
17421;DHT22;8828;48.800;9.540;2023-06-10T11:59:15;31.40;72.40
17421;DHT22;8828;48.800;9.540;2023-06-10T12:01:44;30.90;71.20
17421;DHT22;8828;48.800;9.540;2023-06-10T12:04:14;30.40;71.10
17421;DHT22;8828;48.800;9.540;2023-06-10T12:06:46;30.00;71.40
17421;DHT22;8828;48.800;9.540;2023-06-10T12:09:18;29.50;72.80
17421;DHT22;8828;48.800;9.540;2023-06-10T12:11:51;29.20;74.20
17421;DHT22;8828;48.800;9.540;2023-06-10T12:14:51;29.10;76.10
17421;DHT22;8828;48.800;9.540;2023-06-10T12:17:21;28.90;76.50
17421;DHT22;8828;48.800;9.540;2023-06-10T12:19:50;28.70;76.20
17421;DHT22;8828;48.800;9.540;2023-06-10T12:22:18;28.60;76.10
17421;DHT22;8828;48.800;9.540;2023-06-10T12:24:58;28.50;76.10
17421;DHT22;8828;48.800;9.540;2023-06-10T12:27:29;28.30;77.00
17421;DHT22;8828;48.800;9.540;2023-06-10T12:29:59;28.30;76.70
17421;DHT22;8828;48.800;9.540;2023-06-10T12:32:40;28.30;77.10
17421;DHT22;8828;48.800;9.540;2023-06-10T12:35:10;28.30;77.30
17421;DHT22;8828;48.800;9.540;2023-06-10T12:37:39;28.30;76.60
17421;DHT22;8828;48.800;9.540;2023-06-10T12:40:10;28.30;77.20
17421;DHT22;8828;48.800;9.540;2023-06-10T12:42:40;28.30;78.10
17421;DHT22;8828;48.800;9.540;2023-06-10T12:45:09;28.30;77.30
17421;DHT22;8828;48.800;9.540;2023-06-10T12:47:39;28.30;77.90
17421;DHT22;8828;48.800;9.540;2023-06-10T12:50:09;28.30;78.80
17421;DHT22;8828;48.800;9.540;2023-06-10T12:52:39;28.20;77.70
17421;DHT22;8828;48.800;9.540;2023-06-10T12:55:08;28.10;77.40
17421;DHT22;8828;48.800;9.540;2023-06-10T12:57:37;28.00;77.50
17421;DHT22;8828;48.800;9.540;2023-06-10T13:00:08;28.00;78.30
17421;DHT22;8828;48.800;9.540;2023-06-10T13:02:40;28.00;78.60
17421;DHT22;8828;48.800;9.540;2023-06-10T13:05:08;28.00;78.30
17421;DHT22;8828;48.800;9.540;2023-06-10T13:07:41;28.00;77.90
17421;DHT22;8828;48.800;9.540;2023-06-10T13:10:09;28.10;78.30
17421;DHT22;8828;48.800;9.540;2023-06-10T13:12:37;28.00;78.00
17421;DHT22;8828;48.800;9.540;2023-06-10T13:15:15;28.00;78.50
17421;DHT22;8828;48.800;9.540;2023-06-10T13:17:43;27.90;78.40
17421;DHT22;8828;48.800;9.540;2023-06-10T13:20:12;27.80;78.60
17421;DHT22;8828;48.800;9.540;2023-06-10T13:22:40;27.70;78.80
17421;DHT22;8828;48.800;9.540;2023-06-10T13:25:09;27.70;79.80
17421;DHT22;8828;48.800;9.540;2023-06-10T13:27:38;27.60;79.20
17421;DHT22;8828;48.800;9.540;2023-06-10T13:30:07;27.70;79.20
17421;DHT22;8828;48.800;9.540;2023-06-10T13:32:37;27.50;78.90
17421;DHT22;8828;48.800;9.540;2023-06-10T13:35:06;27.40;79.70
17421;DHT22;8828;48.800;9.540;2023-06-10T13:37:35;27.40;79.80
17421;DHT22;8828;48.800;9.540;2023-06-10T13:40:05;27.30;79.60
17421;DHT22;8828;48.800;9.540;2023-06-10T13:42:35;27.20;79.70
17421;DHT22;8828;48.800;9.540;2023-06-10T13:45:04;27.20;80.40
17421;DHT22;8828;48.800;9.540;2023-06-10T13:47:34;27.20;80.90
17421;DHT22;8828;48.800;9.540;2023-06-10T13:50:04;27.20;79.90
17421;DHT22;8828;48.800;9.540;2023-06-10T13:52:32;27.20;79.80
17421;DHT22;8828;48.800;9.540;2023-06-10T13:55:00;27.20;80.50
17421;DHT22;8828;48.800;9.540;2023-06-10T13:57:28;27.20;80.50
17421;DHT22;8828;48.800;9.540;2023-06-10T13:59:56;27.20;80.90
17421;DHT22;8828;48.800;9.540;2023-06-10T14:02:24;27.20;80.70
17421;DHT22;8828;48.800;9.540;2023-06-10T14:04:52;27.20;81.70
17421;DHT22;8828;48.800;9.540;2023-06-10T14:07:21;27.20;80.90
17421;DHT22;8828;48.800;9.540;2023-06-10T14:09:49;27.10;79.20
17421;DHT22;8828;48.800;9.540;2023-06-10T14:12:18;27.00;79.20
17421;DHT22;8828;48.800;9.540;2023-06-10T14:14:46;27.00;79.60
17421;DHT22;8828;48.800;9.540;2023-06-10T14:17:14;27.00;80.20
17421;DHT22;8828;48.800;9.540;2023-06-10T14:19:42;26.90;81.10
17421;DHT22;8828;48.800;9.540;2023-06-10T14:22:10;27.00;80.50
17421;DHT22;8828;48.800;9.540;2023-06-10T14:24:39;27.00;80.40
17421;DHT22;8828;48.800;9.540;2023-06-10T14:27:07;27.00;80.40
17421;DHT22;8828;48.800;9.540;2023-06-10T14:29:35;27.00;80.70
17421;DHT22;8828;48.800;9.540;2023-06-10T14:32:03;27.00;80.70
17421;DHT22;8828;48.800;9.540;2023-06-10T14:34:35;27.00;81.40
17421;DHT22;8828;48.800;9.540;2023-06-10T14:37:03;27.00;81.20
17421;DHT22;8828;48.800;9.540;2023-06-10T14:39:34;27.00;81.80
17421;DHT22;8828;48.800;9.540;2023-06-10T14:42:04;27.10;82.30
17421;DHT22;8828;48.800;9.540;2023-06-10T14:44:33;27.10;82.30
17421;DHT22;8828;48.800;9.540;2023-06-10T14:47:01;27.10;81.80
17421;DHT22;8828;48.800;9.540;2023-06-10T14:49:29;27.10;79.40
17421;DHT22;8828;48.800;9.540;2023-06-10T14:51:57;27.10;78.60
17421;DHT22;8828;48.800;9.540;2023-06-10T14:54:25;27.10;78.60
17421;DHT22;8828;48.800;9.540;2023-06-10T14:56:54;27.10;78.20
17421;DHT22;8828;48.800;9.540;2023-06-10T14:59:23;27.10;78.90
17421;DHT22;8828;48.800;9.540;2023-06-10T15:01:51;27.10;78.90
17421;DHT22;8828;48.800;9.540;2023-06-10T15:04:19;27.10;78.70
17421;DHT22;8828;48.800;9.540;2023-06-10T15:06:50;27.10;79.00
17421;DHT22;8828;48.800;9.540;2023-06-10T15:09:18;27.10;79.00
17421;DHT22;8828;48.800;9.540;2023-06-10T15:11:46;27.10;79.80
17421;DHT22;8828;48.800;9.540;2023-06-10T15:14:14;27.10;80.20
17421;DHT22;8828;48.800;9.540;2023-06-10T15:16:44;27.10;80.30
17421;DHT22;8828;48.800;9.540;2023-06-10T15:19:12;27.10;80.60
17421;DHT22;8828;48.800;9.540;2023-06-10T15:21:40;27.00;80.20
17421;DHT22;8828;48.800;9.540;2023-06-10T15:24:08;27.00;80.30
17421;DHT22;8828;48.800;9.540;2023-06-10T15:26:36;27.00;80.70
17421;DHT22;8828;48.800;9.540;2023-06-10T15:29:04;27.00;80.30
17421;DHT22;8828;48.800;9.540;2023-06-10T15:31:33;26.90;78.40
17421;DHT22;8828;48.800;9.540;2023-06-10T15:34:02;26.90;78.40
17421;DHT22;8828;48.800;9.540;2023-06-10T15:36:30;26.80;78.00
17421;DHT22;8828;48.800;9.540;2023-06-10T15:39:01;26.80;77.30
17421;DHT22;8828;48.800;9.540;2023-06-10T15:41:30;26.80;77.80
17421;DHT22;8828;48.800;9.540;2023-06-10T15:43:58;26.70;77.70
17421;DHT22;8828;48.800;9.540;2023-06-10T15:46:26;26.70;78.10
17421;DHT22;8828;48.800;9.540;2023-06-10T15:48:55;26.80;78.10
17421;DHT22;8828;48.800;9.540;2023-06-10T15:51:24;26.70;78.10
17421;DHT22;8828;48.800;9.540;2023-06-10T15:53:52;26.70;79.00
17421;DHT22;8828;48.800;9.540;2023-06-10T15:56:21;26.70;78.90
17421;DHT22;8828;48.800;9.540;2023-06-10T15:58:49;26.70;79.00
17421;DHT22;8828;48.800;9.540;2023-06-10T16:01:17;26.70;79.40